createdAt,value
2023-04-23T00:00:32.652Z,5.20
2023-04-23T00:01:23.423Z,5.00
2023-04-23T00:02:14.352Z,5.10
2023-04-23T00:03:05.265Z,5.10
2023-04-23T00:03:56.260Z,5.10
2023-04-23T00:04:47.453Z,5.00
2023-04-23T00:05:37.882Z,5.50
2023-04-23T00:06:28.613Z,5.10
2023-04-23T00:07:19.400Z,5.50
2023-04-23T00:08:10.188Z,5.40
2023-04-23T00:09:00.969Z,5.20
2023-04-23T00:09:51.765Z,5.10
2023-04-23T00:10:42.543Z,5.10
2023-04-23T00:11:33.334Z,5.50
2023-04-23T00:12:24.552Z,5.00
2023-04-23T00:13:15.370Z,5.20
2023-04-23T00:14:06.183Z,5.50
2023-04-23T00:14:56.957Z,5.30
2023-04-23T00:15:47.742Z,5.30
2023-04-23T00:16:38.650Z,5.10
2023-04-23T00:17:29.440Z,5.40
2023-04-23T00:18:20.192Z,5.10
2023-04-23T00:19:10.975Z,5.40
2023-04-23T00:20:01.781Z,5.40
2023-04-23T00:20:52.522Z,5.60
2023-04-23T00:21:43.318Z,5.50
2023-04-23T00:22:34.084Z,5.10
2023-04-23T00:23:24.867Z,6.00
2023-04-23T00:24:15.662Z,5.50
2023-04-23T00:25:06.449Z,5.30
2023-04-23T00:25:57.247Z,5.10
2023-04-23T00:26:48.023Z,5.40
2023-04-23T00:27:38.828Z,5.30
2023-04-23T00:28:29.616Z,5.10
2023-04-23T00:29:20.402Z,5.40
2023-04-23T00:30:11.208Z,5.40
2023-04-23T00:31:01.983Z,5.70
2023-04-23T00:31:52.815Z,5.70
2023-04-23T00:32:43.616Z,5.30
2023-04-23T00:33:34.338Z,5.30
2023-04-23T00:34:25.122Z,5.70
2023-04-23T00:35:15.901Z,6.00
2023-04-23T00:36:06.673Z,5.80
2023-04-23T00:36:57.444Z,6.20
2023-04-23T00:37:48.236Z,6.20
2023-04-23T00:38:39.012Z,6.50
2023-04-23T00:39:29.789Z,6.30
2023-04-23T00:40:20.579Z,6.20
2023-04-23T00:41:11.376Z,5.80
2023-04-23T00:42:02.180Z,6.10
2023-04-23T00:42:52.951Z,6.40
2023-04-23T00:43:43.738Z,6.30
2023-04-23T00:44:34.506Z,6.70
2023-04-23T00:45:25.302Z,6.40
2023-04-23T00:46:16.095Z,6.00
2023-04-23T00:47:06.860Z,6.00
2023-04-23T00:47:57.700Z,5.90
2023-04-23T00:48:48.446Z,6.20
2023-04-23T00:49:39.224Z,6.20
2023-04-23T00:50:30.001Z,5.90
2023-04-23T00:51:20.789Z,6.40
2023-04-23T00:52:11.567Z,6.00
2023-04-23T00:53:02.348Z,6.20
2023-04-23T00:53:53.154Z,6.50
2023-04-23T00:54:44.152Z,6.70
2023-04-23T00:55:35.015Z,6.50
2023-04-23T00:56:25.776Z,6.30
2023-04-23T00:57:16.563Z,6.40
2023-04-23T00:58:07.354Z,6.30
2023-04-23T00:58:58.119Z,6.50
2023-04-23T00:59:48.912Z,6.80
2023-04-23T01:00:39.700Z,6.90
2023-04-23T01:01:30.535Z,6.60
2023-04-23T01:02:21.368Z,6.60
2023-04-23T01:03:12.277Z,6.40
2023-04-23T01:04:03.280Z,6.40
2023-04-23T01:04:54.088Z,6.50
2023-04-23T01:05:44.885Z,6.90
2023-04-23T01:06:35.655Z,6.60
2023-04-23T01:07:26.441Z,6.80
2023-04-23T01:08:17.227Z,7.10
2023-04-23T01:09:08.001Z,7.00
2023-04-23T01:09:58.787Z,7.40
2023-04-23T01:10:49.552Z,7.20
2023-04-23T01:11:40.321Z,7.70
2023-04-23T01:12:31.110Z,8.10
2023-04-23T01:13:21.889Z,7.80
2023-04-23T01:14:12.681Z,7.70
2023-04-23T01:15:03.468Z,7.90
2023-04-23T01:15:54.229Z,7.70
2023-04-23T01:16:45.039Z,7.80
2023-04-23T01:17:35.795Z,8.40
2023-04-23T01:18:26.652Z,8.10
2023-04-23T01:19:17.531Z,7.80
2023-04-23T01:20:08.249Z,7.90
2023-04-23T01:20:59.036Z,8.40
2023-04-23T01:21:49.833Z,8.10
2023-04-23T01:22:40.604Z,8.50
2023-04-23T01:23:31.396Z,7.90
2023-04-23T01:24:22.192Z,8.60
2023-04-23T01:25:12.973Z,8.30
2023-04-23T01:26:03.763Z,8.00
2023-04-23T01:26:54.538Z,8.10
2023-04-23T01:27:45.326Z,8.30
2023-04-23T01:28:36.109Z,8.10
2023-04-23T01:29:26.883Z,9.00
2023-04-23T01:30:17.669Z,9.00
2023-04-23T01:31:08.538Z,8.80
2023-04-23T01:31:59.252Z,9.00
2023-04-23T01:32:50.103Z,8.70
2023-04-23T01:33:40.829Z,9.50
2023-04-23T01:34:31.587Z,8.70
2023-04-23T01:35:22.369Z,9.10
2023-04-23T01:36:13.142Z,8.70
2023-04-23T01:37:03.920Z,8.70
2023-04-23T01:37:54.716Z,8.60
2023-04-23T01:38:45.462Z,9.00
2023-04-23T01:39:36.252Z,8.70
2023-04-23T01:40:27.045Z,9.00
2023-04-23T01:41:17.817Z,8.90
2023-04-23T01:42:08.636Z,8.70
2023-04-23T01:42:59.386Z,9.30
2023-04-23T01:43:50.170Z,9.20
2023-04-23T01:44:41.204Z,9.00
2023-04-23T01:45:32.136Z,8.60
2023-04-23T01:46:23.022Z,9.10
2023-04-23T01:47:13.806Z,9.20
2023-04-23T01:48:04.573Z,9.20
2023-04-23T01:48:55.362Z,9.80
2023-04-23T01:49:46.137Z,9.00
2023-04-23T01:50:36.895Z,9.00
2023-04-23T01:51:27.670Z,9.30
2023-04-23T01:52:18.457Z,9.30
2023-04-23T01:53:09.177Z,9.60
2023-04-23T01:53:59.951Z,9.90
2023-04-23T01:54:50.736Z,9.40
2023-04-23T01:55:41.499Z,9.50
2023-04-23T01:56:32.242Z,9.60
2023-04-23T01:57:23.039Z,9.60
2023-04-23T01:58:13.816Z,9.70
2023-04-23T01:59:04.600Z,9.90
2023-04-23T01:59:55.381Z,9.60
2023-04-23T02:00:46.179Z,9.70
2023-04-23T02:01:36.979Z,9.90
2023-04-23T02:02:27.941Z,9.50
2023-04-23T02:03:18.887Z,9.70
2023-04-23T02:04:09.790Z,10.00
2023-04-23T02:05:00.566Z,10.00
2023-04-23T02:05:51.359Z,9.90
2023-04-23T02:06:42.145Z,9.60
2023-04-23T02:07:32.925Z,9.90
2023-04-23T02:08:23.694Z,10.20
2023-04-23T02:09:14.468Z,9.90
2023-04-23T02:10:05.249Z,10.00
2023-04-23T02:10:56.033Z,10.20
2023-04-23T02:11:46.832Z,9.80
2023-04-23T02:12:37.614Z,9.80
2023-04-23T02:13:28.408Z,9.80
2023-04-23T02:14:19.201Z,10.60
2023-04-23T02:15:09.984Z,10.00
2023-04-23T02:16:00.778Z,10.40
2023-04-23T02:16:51.540Z,10.40
2023-04-23T02:17:42.342Z,10.50
2023-04-23T02:18:33.124Z,9.70
2023-04-23T02:19:23.915Z,10.10
2023-04-23T02:20:14.681Z,9.90
2023-04-23T02:21:05.395Z,9.80
2023-04-23T02:21:56.187Z,9.70
2023-04-23T02:22:46.954Z,9.50
2023-04-23T02:23:37.690Z,9.90
2023-04-23T02:24:28.485Z,10.40
2023-04-23T02:25:19.242Z,10.20
2023-04-23T02:26:10.027Z,9.70
2023-04-23T02:27:00.817Z,10.30
2023-04-23T02:27:51.523Z,10.60
2023-04-23T02:28:42.193Z,11.40
2023-04-23T02:29:32.971Z,10.60
2023-04-23T02:30:23.743Z,11.60
2023-04-23T02:31:14.555Z,13.50
2023-04-23T02:32:05.260Z,14.30
2023-04-23T02:32:56.086Z,14.80
2023-04-23T02:33:46.831Z,16.70
2023-04-23T02:34:37.694Z,17.10
2023-04-23T02:35:28.523Z,18.30
2023-04-23T02:36:19.303Z,18.40
2023-04-23T02:37:10.074Z,19.30
2023-04-23T02:38:00.857Z,19.80
2023-04-23T02:38:51.640Z,19.70
2023-04-23T02:39:42.425Z,20.40
2023-04-23T02:40:33.174Z,19.70
2023-04-23T02:41:23.969Z,19.60
2023-04-23T02:42:14.760Z,19.40
2023-04-23T02:43:05.537Z,19.40
2023-04-23T02:43:56.326Z,19.80
2023-04-23T02:44:47.033Z,19.90
2023-04-23T02:45:37.810Z,19.70
2023-04-23T02:46:28.606Z,19.00
2023-04-23T02:47:20.103Z,19.30
2023-04-23T02:48:10.190Z,19.60
2023-04-23T02:49:00.976Z,20.30
2023-04-23T02:49:51.790Z,20.00
2023-04-23T02:50:42.536Z,19.90
2023-04-23T02:51:33.315Z,19.80
2023-04-23T02:52:24.093Z,19.90
2023-04-23T02:53:14.824Z,19.50
2023-04-23T02:54:05.593Z,20.20
2023-04-23T02:54:56.385Z,20.40
2023-04-23T02:55:47.169Z,20.50
2023-04-23T02:56:37.963Z,20.20
2023-04-23T02:57:28.732Z,21.00
2023-04-23T02:58:19.525Z,20.80
2023-04-23T02:59:10.263Z,20.30
2023-04-23T03:00:01.091Z,21.00
2023-04-23T03:00:51.880Z,20.40
2023-04-23T03:01:42.632Z,20.70
2023-04-23T03:02:33.514Z,20.00
2023-04-23T03:03:24.486Z,20.10
2023-04-23T03:04:15.308Z,20.10
2023-04-23T03:05:06.076Z,19.40
2023-04-23T03:05:56.820Z,20.00
2023-04-23T03:06:47.589Z,19.90
2023-04-23T03:07:38.374Z,19.90
2023-04-23T03:08:29.158Z,20.90
2023-04-23T03:09:19.926Z,20.10
2023-04-23T03:10:10.712Z,21.30
2023-04-23T03:11:01.477Z,21.10
2023-04-23T03:11:52.265Z,20.70
2023-04-23T03:12:43.083Z,20.70
2023-04-23T03:13:33.859Z,21.20
2023-04-23T03:14:24.588Z,19.80
2023-04-23T03:15:15.710Z,21.60
2023-04-23T03:16:06.812Z,21.00
2023-04-23T03:16:57.721Z,21.70
2023-04-23T03:17:48.684Z,21.20
2023-04-23T03:18:39.640Z,21.90
2023-04-23T03:19:30.859Z,22.50
2023-04-23T03:20:22.081Z,22.30
2023-04-23T03:21:13.185Z,22.60
2023-04-23T03:22:04.248Z,23.20
2023-04-23T03:22:55.181Z,23.80
2023-04-23T03:23:46.145Z,24.50
2023-04-23T03:24:36.794Z,23.60
2023-04-23T03:25:27.540Z,24.40
2023-04-23T03:26:18.306Z,25.10
2023-04-23T03:27:09.062Z,24.90
2023-04-23T03:27:59.811Z,25.00
2023-04-23T03:28:50.579Z,24.90
2023-04-23T03:29:41.348Z,24.70
2023-04-23T03:30:32.172Z,25.50
2023-04-23T03:31:22.986Z,24.00
2023-04-23T03:32:13.712Z,24.70
2023-04-23T03:33:04.483Z,24.60
2023-04-23T03:33:55.239Z,25.40
2023-04-23T03:34:46.005Z,25.50
2023-04-23T03:35:36.789Z,25.00
2023-04-23T03:36:27.524Z,25.00
2023-04-23T03:37:18.291Z,25.00
2023-04-23T03:38:09.037Z,24.10
2023-04-23T03:38:59.804Z,24.20
2023-04-23T03:39:50.755Z,24.50
2023-04-23T03:40:41.628Z,24.80
2023-04-23T03:41:32.486Z,24.20
2023-04-23T03:42:23.369Z,24.90
2023-04-23T03:43:14.220Z,24.00
2023-04-23T03:44:05.116Z,24.20
2023-04-23T03:44:55.977Z,23.80
2023-04-23T03:45:46.885Z,23.20
2023-04-23T03:46:37.817Z,23.10
2023-04-23T03:47:28.698Z,23.30
2023-04-23T03:48:19.562Z,22.90
2023-04-23T03:49:10.836Z,22.70
2023-04-23T03:50:01.624Z,23.60
2023-04-23T03:50:52.441Z,23.00
2023-04-23T03:51:43.125Z,22.60
2023-04-23T03:52:33.984Z,22.80
2023-04-23T03:53:24.852Z,21.60
2023-04-23T03:54:15.728Z,22.20
2023-04-23T03:55:06.606Z,21.80
2023-04-23T03:55:57.496Z,21.90
2023-04-23T03:56:48.361Z,21.00
2023-04-23T03:57:39.229Z,20.40
2023-04-23T03:58:30.085Z,20.10
2023-04-23T03:59:20.948Z,20.00
2023-04-23T04:00:11.834Z,19.70
2023-04-23T04:01:02.678Z,20.60
2023-04-23T04:01:53.540Z,19.60
2023-04-23T04:02:44.540Z,19.30
2023-04-23T04:03:35.708Z,18.90
2023-04-23T04:04:26.300Z,18.70
2023-04-23T04:05:17.362Z,18.50
2023-04-23T04:06:08.206Z,18.80
2023-04-23T04:06:59.053Z,18.20
2023-04-23T04:07:49.926Z,18.90
2023-04-23T04:08:40.793Z,18.60
2023-04-23T04:09:31.678Z,18.40
2023-04-23T04:10:22.560Z,18.30
2023-04-23T04:11:13.428Z,17.40
2023-04-23T04:12:04.291Z,17.40
2023-04-23T04:12:55.165Z,17.70
2023-04-23T04:13:46.032Z,17.40
2023-04-23T04:14:36.910Z,18.00
2023-04-23T04:15:27.792Z,18.60
2023-04-23T04:16:18.692Z,18.20
2023-04-23T04:17:09.556Z,17.40
2023-04-23T04:18:00.471Z,17.60
2023-04-23T04:18:51.315Z,17.80
2023-04-23T04:19:42.192Z,17.90
2023-04-23T04:20:33.064Z,17.70
2023-04-23T04:21:23.963Z,17.30
2023-04-23T04:22:14.818Z,17.10
2023-04-23T04:23:05.703Z,16.80
2023-04-23T04:23:56.589Z,16.50
2023-04-23T04:24:47.569Z,16.30
2023-04-23T04:25:38.495Z,16.90
2023-04-23T04:26:29.381Z,16.40
2023-04-23T04:27:20.273Z,16.40
2023-04-23T04:28:11.154Z,16.50
2023-04-23T04:29:02.039Z,15.80
2023-04-23T04:29:52.926Z,15.60
2023-04-23T04:30:43.822Z,16.30
2023-04-23T04:31:34.723Z,15.70
2023-04-23T04:32:25.623Z,16.50
2023-04-23T04:33:16.501Z,17.00
2023-04-23T04:34:07.361Z,16.30
2023-04-23T04:34:58.229Z,15.90
2023-04-23T04:35:49.112Z,16.00
2023-04-23T04:36:40.011Z,14.70
2023-04-23T04:37:30.862Z,15.30
2023-04-23T04:38:21.751Z,15.00
2023-04-23T04:39:12.644Z,15.70
2023-04-23T04:40:03.512Z,15.10
2023-04-23T04:40:54.392Z,15.20
2023-04-23T04:41:45.272Z,15.00
2023-04-23T04:42:36.146Z,14.70
2023-04-23T04:43:27.011Z,14.30
2023-04-23T04:44:17.909Z,14.20
2023-04-23T04:45:08.829Z,14.70
2023-04-23T04:45:59.713Z,13.80
2023-04-23T04:46:50.628Z,13.80
2023-04-23T04:47:41.485Z,13.80
2023-04-23T04:48:32.370Z,13.50
2023-04-23T04:49:23.267Z,12.60
2023-04-23T04:50:14.154Z,12.90
2023-04-23T04:51:05.015Z,11.90
2023-04-23T04:51:56.023Z,11.80
2023-04-23T04:52:46.827Z,11.80
2023-04-23T04:53:37.706Z,11.30
2023-04-23T04:54:28.582Z,10.80
2023-04-23T04:55:19.467Z,11.00
2023-04-23T04:56:10.353Z,11.00
2023-04-23T04:57:01.235Z,10.10
2023-04-23T04:57:52.138Z,10.20
2023-04-23T04:58:43.016Z,10.70
2023-04-23T04:59:33.906Z,10.50
2023-04-23T05:00:24.788Z,10.20
2023-04-23T05:01:15.739Z,10.90
2023-04-23T05:02:06.663Z,10.40
2023-04-23T05:02:57.732Z,10.70
2023-04-23T05:03:48.276Z,10.50
2023-04-23T05:04:39.508Z,10.10
2023-04-23T05:05:29.970Z,9.80
2023-04-23T05:06:20.850Z,10.10
2023-04-23T05:07:11.839Z,9.50
2023-04-23T05:08:02.679Z,9.50
2023-04-23T05:08:53.542Z,9.50
2023-04-23T05:09:45.220Z,9.50
2023-04-23T05:10:35.629Z,9.20
2023-04-23T05:11:26.537Z,9.30
2023-04-23T05:12:17.435Z,9.00
2023-04-23T05:13:08.327Z,9.10
2023-04-23T05:13:59.218Z,9.50
2023-04-23T05:14:51.253Z,9.00
2023-04-23T05:15:41.202Z,8.60
2023-04-23T05:16:32.138Z,9.00
2023-04-23T05:17:22.997Z,8.80
2023-04-23T05:18:13.874Z,8.80
2023-04-23T05:19:04.810Z,8.70
2023-04-23T05:19:55.701Z,8.50
2023-04-23T05:20:46.624Z,8.40
2023-04-23T05:21:37.532Z,8.30
2023-04-23T05:22:28.451Z,8.10
2023-04-23T05:23:19.336Z,8.10
2023-04-23T05:24:10.249Z,7.50
2023-04-23T05:25:01.155Z,7.50
2023-04-23T05:25:54.225Z,7.70
2023-04-23T05:26:42.984Z,7.40
2023-04-23T05:27:33.879Z,6.90
2023-04-23T05:28:24.795Z,6.90
2023-04-23T05:29:15.695Z,7.30
2023-04-23T05:30:06.602Z,6.80
2023-04-23T05:30:57.509Z,6.60
2023-04-23T05:31:48.464Z,6.50
2023-04-23T05:32:39.366Z,6.50
2023-04-23T05:33:33.541Z,6.40
2023-04-23T05:34:22.219Z,6.10
2023-04-23T05:35:11.895Z,6.40
2023-04-23T05:36:02.796Z,6.40
2023-04-23T05:36:53.697Z,6.30
2023-04-23T05:37:44.640Z,6.30
2023-04-23T05:38:35.521Z,6.70
2023-04-23T05:39:26.439Z,6.90
2023-04-23T05:40:17.345Z,6.40
2023-04-23T05:41:08.311Z,6.00
2023-04-23T05:41:59.186Z,6.60
2023-04-23T05:42:50.079Z,6.60
2023-04-23T05:43:40.990Z,6.60
2023-04-23T05:44:31.888Z,6.40
2023-04-23T05:45:23.660Z,6.20
2023-04-23T05:46:14.000Z,6.70
2023-04-23T05:47:04.874Z,5.90
2023-04-23T05:47:55.816Z,6.10
2023-04-23T05:48:47.620Z,5.70
2023-04-23T05:49:37.867Z,5.70
2023-04-23T05:50:28.773Z,5.60
2023-04-23T05:51:19.701Z,5.90
2023-04-23T05:52:10.592Z,5.30
2023-04-23T05:53:01.524Z,5.30
2023-04-23T05:53:52.401Z,5.20
2023-04-23T05:54:43.649Z,5.10
2023-04-23T05:55:34.023Z,5.10
2023-04-23T05:56:24.916Z,4.90
2023-04-23T05:57:15.812Z,5.00
2023-04-23T05:58:06.727Z,4.60
2023-04-23T05:58:57.629Z,4.90
2023-04-23T05:59:48.537Z,4.90
2023-04-23T06:00:39.465Z,4.70
2023-04-23T06:01:30.375Z,5.10
2023-04-23T06:02:23.970Z,5.00
2023-04-23T06:03:12.263Z,5.30
2023-04-23T06:04:03.279Z,5.00
2023-04-23T06:04:53.925Z,5.20
2023-04-23T06:05:44.954Z,5.20
2023-04-23T06:06:35.829Z,5.40
2023-04-23T06:07:26.739Z,5.10
2023-04-23T06:08:17.666Z,4.90
2023-04-23T06:09:08.557Z,5.40
2023-04-23T06:09:59.452Z,5.20
2023-04-23T06:10:50.360Z,5.40
2023-04-23T06:11:41.282Z,5.40
2023-04-23T06:12:32.178Z,5.70
2023-04-23T06:13:23.099Z,5.70
2023-04-23T06:14:13.996Z,5.80
2023-04-23T06:15:04.909Z,5.90
2023-04-23T06:15:55.833Z,6.20
2023-04-23T06:16:46.738Z,6.10
2023-04-23T06:17:37.699Z,6.90
2023-04-23T06:18:28.598Z,6.60
2023-04-23T06:19:19.503Z,6.60
2023-04-23T06:20:10.398Z,6.80
2023-04-23T06:21:01.308Z,7.10
2023-04-23T06:21:52.236Z,6.50
2023-04-23T06:22:43.114Z,6.70
2023-04-23T06:23:34.040Z,7.30
2023-04-23T06:24:24.935Z,6.80
2023-04-23T06:25:15.861Z,6.80
2023-04-23T06:26:07.670Z,7.30
2023-04-23T06:26:57.354Z,6.90
2023-04-23T06:27:48.270Z,7.10
2023-04-23T06:28:39.183Z,6.80
2023-04-23T06:29:30.091Z,7.20
2023-04-23T06:30:20.989Z,7.00
2023-04-23T06:31:11.901Z,7.40
2023-04-23T06:32:02.822Z,7.60
2023-04-23T06:32:53.754Z,7.20
2023-04-23T06:33:44.645Z,7.30
2023-04-23T06:34:35.564Z,7.00
2023-04-23T06:35:26.473Z,6.70
2023-04-23T06:36:17.388Z,7.50
2023-04-23T06:37:08.297Z,7.00
2023-04-23T06:37:59.217Z,7.00
2023-04-23T06:38:50.137Z,7.10
2023-04-23T06:39:41.019Z,7.00
2023-04-23T06:40:31.928Z,7.00
2023-04-23T06:41:22.838Z,7.00
2023-04-23T06:42:13.746Z,6.80
2023-04-23T06:43:04.698Z,6.60
2023-04-23T06:43:55.556Z,6.20
2023-04-23T06:44:46.475Z,6.60
2023-04-23T06:45:37.376Z,6.20
2023-04-23T06:46:28.342Z,6.30
2023-04-23T06:47:19.259Z,7.10
2023-04-23T06:48:10.180Z,6.30
2023-04-23T06:49:01.070Z,6.30
2023-04-23T06:49:52.012Z,6.20
2023-04-23T06:50:42.896Z,6.30
2023-04-23T06:51:33.802Z,6.20
2023-04-23T06:52:24.752Z,6.10
2023-04-23T06:53:15.645Z,6.40
2023-04-23T06:54:06.564Z,6.30
2023-04-23T06:54:57.436Z,5.90
2023-04-23T06:55:48.361Z,6.40
2023-04-23T06:56:39.262Z,5.80
2023-04-23T06:57:30.205Z,6.00
2023-04-23T06:58:21.112Z,5.90
2023-04-23T06:59:12.020Z,14.80
2023-04-23T07:00:02.957Z,20.10
2023-04-23T07:00:53.922Z,6.40
2023-04-23T07:01:44.789Z,7.90
2023-04-23T07:02:35.763Z,6.20
2023-04-23T07:03:26.727Z,6.40
2023-04-23T07:04:17.622Z,6.60
2023-04-23T07:05:08.521Z,6.20
2023-04-23T07:05:59.441Z,6.50
2023-04-23T07:06:50.351Z,6.50
2023-04-23T07:07:41.246Z,6.70
2023-04-23T07:08:32.178Z,6.70
2023-04-23T07:09:23.065Z,6.50
2023-04-23T07:10:16.223Z,6.90
2023-04-23T07:11:04.744Z,6.40
2023-04-23T07:11:55.667Z,6.50
2023-04-23T07:12:46.572Z,6.60
2023-04-23T07:13:37.761Z,6.40
2023-04-23T07:14:28.629Z,6.30
2023-04-23T07:15:19.598Z,6.20
2023-04-23T07:16:10.530Z,7.00
2023-04-23T07:17:01.498Z,6.70
2023-04-23T07:17:52.457Z,6.40
2023-04-23T07:18:43.340Z,6.50
2023-04-23T07:19:34.263Z,6.20
2023-04-23T07:20:25.350Z,6.10
2023-04-23T07:21:16.259Z,6.40
2023-04-23T07:22:07.151Z,5.90
2023-04-23T07:22:58.042Z,6.40
2023-04-23T07:23:48.940Z,6.20
2023-04-23T07:24:39.942Z,6.10
2023-04-23T07:25:30.889Z,5.90
2023-04-23T07:26:21.817Z,6.00
2023-04-23T07:27:12.719Z,6.20
2023-04-23T07:28:03.633Z,5.90
2023-04-23T07:28:54.546Z,5.70
2023-04-23T07:29:45.435Z,6.00
2023-04-23T07:30:36.375Z,5.80
2023-04-23T07:31:27.289Z,5.60
2023-04-23T07:32:18.238Z,6.00
2023-04-23T07:33:09.112Z,6.30
2023-04-23T07:34:00.025Z,5.90
2023-04-23T07:34:50.912Z,6.10
2023-04-23T07:35:41.830Z,6.40
2023-04-23T07:36:32.741Z,5.70
2023-04-23T07:37:23.649Z,6.20
2023-04-23T07:38:14.540Z,6.00
2023-04-23T07:39:05.478Z,5.90
2023-04-23T07:39:56.386Z,5.60
2023-04-23T07:40:47.265Z,5.80
2023-04-23T07:41:38.495Z,6.00
2023-04-23T07:42:28.802Z,6.00
2023-04-23T07:43:19.734Z,6.00
2023-04-23T07:44:10.700Z,6.30
2023-04-23T07:45:01.582Z,6.30
2023-04-23T07:45:52.519Z,6.10
2023-04-23T07:46:43.406Z,5.80
2023-04-23T07:47:34.486Z,5.60
2023-04-23T07:48:25.360Z,5.70
2023-04-23T07:49:16.258Z,5.90
2023-04-23T07:50:07.164Z,5.60
2023-04-23T07:50:58.080Z,5.40
2023-04-23T07:51:48.995Z,5.40
2023-04-23T07:52:39.917Z,5.90
2023-04-23T07:53:30.845Z,5.80
2023-04-23T07:54:23.096Z,5.60
2023-04-23T07:55:12.386Z,5.60
2023-04-23T07:56:03.278Z,5.10
2023-04-23T07:56:54.195Z,5.60
2023-04-23T07:57:45.090Z,5.30
2023-04-23T07:58:36.026Z,5.40
2023-04-23T07:59:26.915Z,5.40
2023-04-23T08:00:17.824Z,5.50
2023-04-23T08:01:08.746Z,5.80
2023-04-23T08:01:59.651Z,5.70
2023-04-23T08:02:50.615Z,5.80
2023-04-23T08:03:41.659Z,5.30
2023-04-23T08:04:32.749Z,5.80
2023-04-23T08:05:23.772Z,5.20
2023-04-23T08:06:14.652Z,5.70
2023-04-23T08:07:05.584Z,5.10
2023-04-23T08:07:56.477Z,5.90
2023-04-23T08:08:47.413Z,5.30
2023-04-23T08:09:38.765Z,5.50
2023-04-23T08:10:29.180Z,5.70
2023-04-23T08:11:20.087Z,5.40
2023-04-23T08:12:11.002Z,5.10
2023-04-23T08:13:01.906Z,5.60
2023-04-23T08:13:52.843Z,5.50
2023-04-23T08:14:43.780Z,5.60
2023-04-23T08:15:34.700Z,5.40
2023-04-23T08:16:25.639Z,6.10
2023-04-23T08:17:16.552Z,5.70
2023-04-23T08:18:07.444Z,6.10
2023-04-23T08:19:50.292Z,5.60
2023-04-23T08:20:40.024Z,5.70
2023-04-23T08:21:30.964Z,6.10
2023-04-23T08:22:22.245Z,6.60
2023-04-23T08:23:12.655Z,5.90
2023-04-23T08:24:03.609Z,5.70
2023-04-23T08:24:54.481Z,5.90
2023-04-23T08:25:45.422Z,5.60
2023-04-23T08:26:36.328Z,5.60
2023-04-23T08:27:27.263Z,5.90
2023-04-23T08:28:18.190Z,5.90
2023-04-23T08:29:10.999Z,5.60
2023-04-23T08:30:00.049Z,5.50
2023-04-23T08:30:50.987Z,5.50
2023-04-23T08:31:41.958Z,5.60
2023-04-23T08:32:32.870Z,5.50
2023-04-23T08:33:23.786Z,5.80
2023-04-23T08:34:14.724Z,6.80
2023-04-23T08:35:05.690Z,123.80
2023-04-23T08:35:56.640Z,6.30
2023-04-23T08:36:47.562Z,5.10
2023-04-23T08:37:38.513Z,6.20
2023-04-23T08:38:29.422Z,5.60
2023-04-23T08:39:20.336Z,5.90
2023-04-23T08:40:11.261Z,5.60
2023-04-23T08:41:02.189Z,5.70
2023-04-23T08:41:53.102Z,5.60
2023-04-23T08:42:44.070Z,7.10
2023-04-23T08:43:35.007Z,6.40
2023-04-23T08:44:26.006Z,11.20
2023-04-23T08:45:16.907Z,14.50
2023-04-23T08:46:07.846Z,15.30
2023-04-23T08:46:58.828Z,5.30
2023-04-23T08:47:49.774Z,5.40
2023-04-23T08:48:40.658Z,5.20
2023-04-23T08:49:31.582Z,4.80
2023-04-23T08:50:22.572Z,5.20
2023-04-23T08:51:13.453Z,5.30
2023-04-23T08:52:04.362Z,5.00
2023-04-23T08:52:55.311Z,4.60
2023-04-23T08:53:46.235Z,4.90
2023-04-23T08:54:37.132Z,5.00
2023-04-23T08:55:28.044Z,5.10
2023-04-23T08:56:18.970Z,5.00
2023-04-23T08:57:09.884Z,5.00
2023-04-23T08:58:00.810Z,4.90
2023-04-23T08:58:51.753Z,5.10
2023-04-23T08:59:42.945Z,5.10
2023-04-23T09:00:33.522Z,4.90
2023-04-23T09:01:24.431Z,5.00
2023-04-23T09:02:15.415Z,5.00
2023-04-23T09:03:06.640Z,5.40
2023-04-23T09:03:57.245Z,4.90
2023-04-23T09:04:50.779Z,5.10
2023-04-23T09:05:39.177Z,5.10
2023-04-23T09:06:30.106Z,5.00
2023-04-23T09:07:21.045Z,4.80
2023-04-23T09:08:11.955Z,4.90
2023-04-23T09:09:02.884Z,4.60
2023-04-23T09:09:53.811Z,4.50
2023-04-23T09:10:44.738Z,4.90
2023-04-23T09:11:35.690Z,4.80
2023-04-23T09:12:26.588Z,5.20
2023-04-23T09:13:17.502Z,5.10
2023-04-23T09:14:08.418Z,5.00
2023-04-23T09:14:59.349Z,4.90
2023-04-23T09:15:50.274Z,5.20
2023-04-23T09:16:41.211Z,5.10
2023-04-23T09:17:32.192Z,5.10
2023-04-23T09:18:23.044Z,4.90
2023-04-23T09:19:13.981Z,5.10
2023-04-23T09:20:04.940Z,4.40
2023-04-23T09:20:55.890Z,5.30
2023-04-23T09:21:46.879Z,4.60
2023-04-23T09:22:37.767Z,4.70
2023-04-23T09:23:28.699Z,5.20
2023-04-23T09:24:19.687Z,4.90
2023-04-23T09:25:10.625Z,4.80
2023-04-23T09:26:01.561Z,5.00
2023-04-23T09:26:52.526Z,5.30
2023-04-23T09:27:43.430Z,5.50
2023-04-23T09:28:34.372Z,4.90
2023-04-23T09:29:25.298Z,5.30
2023-04-23T09:30:16.273Z,4.80
2023-04-23T09:31:07.176Z,5.00
2023-04-23T09:31:58.188Z,5.20
2023-04-23T09:32:49.114Z,5.50
2023-04-23T09:33:40.026Z,5.20
2023-04-23T09:34:30.938Z,5.20
2023-04-23T09:35:21.872Z,4.90
2023-04-23T09:36:12.822Z,5.30
2023-04-23T09:37:03.748Z,5.20
2023-04-23T09:37:54.733Z,4.50
2023-04-23T09:38:45.611Z,5.20
2023-04-23T09:39:36.610Z,5.10
2023-04-23T09:40:27.516Z,5.30
2023-04-23T09:41:18.448Z,5.10
2023-04-23T09:42:09.421Z,5.20
2023-04-23T09:43:00.333Z,5.50
2023-04-23T09:43:51.266Z,5.00
2023-04-23T09:44:42.201Z,5.30
2023-04-23T09:45:33.152Z,5.20
2023-04-23T09:46:24.090Z,5.20
2023-04-23T09:47:15.038Z,5.00
2023-04-23T09:48:05.980Z,5.40
2023-04-23T09:48:56.890Z,5.40
2023-04-23T09:49:47.845Z,5.20
2023-04-23T09:50:38.758Z,5.40
2023-04-23T09:51:29.725Z,5.40
2023-04-23T09:52:20.633Z,5.10
2023-04-23T09:53:11.564Z,5.40
2023-04-23T09:54:02.511Z,5.10
2023-04-23T09:54:53.437Z,5.10
2023-04-23T09:55:44.377Z,5.30
2023-04-23T09:56:35.325Z,5.00
2023-04-23T09:57:26.304Z,5.10
2023-04-23T09:58:17.226Z,5.30
2023-04-23T09:59:08.168Z,5.50
2023-04-23T10:00:11.164Z,5.30
2023-04-23T10:00:51.063Z,5.20
2023-04-23T10:01:40.828Z,5.50
2023-04-23T10:02:31.869Z,5.60
2023-04-23T10:03:22.953Z,8.60
2023-04-23T10:04:14.076Z,5.50
2023-04-23T10:05:21.701Z,5.70
2023-04-23T10:06:01.825Z,5.30
2023-04-23T10:06:58.008Z,5.40
2023-04-23T10:07:38.670Z,20.40
2023-04-23T10:08:28.391Z,6.50
2023-04-23T10:09:19.321Z,5.50
2023-04-23T10:10:10.271Z,5.40
2023-04-23T10:11:09.983Z,5.30
2023-04-23T10:11:53.209Z,5.00
2023-04-23T10:12:54.297Z,5.30
2023-04-23T10:13:34.824Z,5.30
2023-04-23T10:14:24.544Z,5.50
2023-04-23T10:15:15.483Z,5.30
2023-04-23T10:16:20.595Z,5.10
2023-04-23T10:16:57.441Z,4.80
2023-04-23T10:17:48.401Z,5.00
2023-04-23T10:18:39.327Z,5.00
2023-04-23T10:19:30.226Z,5.50
2023-04-23T10:20:21.187Z,5.30
2023-04-23T10:21:12.131Z,5.40
2023-04-23T10:22:53.784Z,5.20
2023-04-23T10:23:44.741Z,5.10
2023-04-23T10:24:35.667Z,5.20
2023-04-23T10:25:26.588Z,5.00
2023-04-23T10:26:17.534Z,4.70
2023-04-23T10:27:21.816Z,4.50
2023-04-23T10:28:00.451Z,4.70
2023-04-23T10:28:50.134Z,4.20
2023-04-23T10:29:41.124Z,4.70
2023-04-23T10:30:32.075Z,4.70
2023-04-23T10:31:23.220Z,4.60
2023-04-23T10:32:14.137Z,4.70
2023-04-23T10:33:08.989Z,5.00
2023-04-23T10:33:58.615Z,4.90
2023-04-23T10:34:47.073Z,5.20
2023-04-23T10:35:38.038Z,5.20
2023-04-23T10:36:29.112Z,4.90
2023-04-23T10:37:20.045Z,4.60
2023-04-23T10:38:10.990Z,4.90
2023-04-23T10:39:02.208Z,4.30
2023-04-23T10:39:53.111Z,4.60
2023-04-23T10:40:44.045Z,4.70
2023-04-23T10:41:35.004Z,4.80
2023-04-23T10:42:25.931Z,5.00
2023-04-23T10:43:16.948Z,4.90
2023-04-23T10:44:07.928Z,5.00
2023-04-23T10:45:04.715Z,4.80
2023-04-23T10:45:50.750Z,4.50
2023-04-23T10:46:40.518Z,4.70
2023-04-23T10:47:31.487Z,4.80
2023-04-23T10:48:22.398Z,4.50
2023-04-23T10:49:13.347Z,4.70
2023-04-23T10:50:04.285Z,4.50
2023-04-23T10:51:09.565Z,4.90
2023-04-23T10:52:17.959Z,4.90
2023-04-23T10:52:37.924Z,5.30
2023-04-23T10:53:27.634Z,6.20
2023-04-23T10:54:18.553Z,5.40
2023-04-23T10:55:09.497Z,4.90
2023-04-23T10:56:00.425Z,4.50
2023-04-23T10:56:51.379Z,5.30
2023-04-23T10:57:42.309Z,4.70
2023-04-23T10:58:33.272Z,4.50
2023-04-23T10:59:24.193Z,4.60
2023-04-23T11:00:15.196Z,4.60
2023-04-23T11:01:06.100Z,5.00
2023-04-23T11:01:57.055Z,5.00
2023-04-23T11:02:48.057Z,5.20
2023-04-23T11:03:43.638Z,4.70
2023-04-23T11:04:31.237Z,5.00
2023-04-23T11:05:20.966Z,4.30
2023-04-23T11:06:11.907Z,4.70
2023-04-23T11:07:02.848Z,4.40
2023-04-23T11:07:53.775Z,5.00
2023-04-23T11:08:44.712Z,5.20
2023-04-23T11:09:35.641Z,5.10
2023-04-23T11:10:26.588Z,5.10
2023-04-23T11:11:17.516Z,4.90
2023-04-23T11:12:08.474Z,4.40
2023-04-23T11:12:59.411Z,4.70